Time;durP1;ratioP1;P1;durP2;ratioP2;P2;SDS_P1;SDS_P2;PMS_P1;PMS_P2;Temp;Humidity;BMP_temperature;BMP_pressure;BME280_temperature;BME280_humidity;BME280_pressure;Samples;Min_cycle;Max_cycle;Signal;HPM_P1;HPM_P2
2022/07/05 00:00:50;;;;;;;15.53;11.03;;;20.60;99.90;;;;;;5032101;28;20227;-74
2022/07/05 00:03:21;;;;;;;25.90;10.97;;;20.60;99.90;;;;;;5032841;28;20640;-74
2022/07/05 00:05:48;;;;;;;17.73;10.43;;;20.60;99.90;;;;;;5034104;28;20605;-75
2022/07/05 00:08:16;;;;;;;13.83;10.10;;;20.60;99.90;;;;;;5032743;28;20293;-75
2022/07/05 00:10:43;;;;;;;14.57;10.57;;;20.60;99.90;;;;;;5032906;28;20656;-75
2022/07/05 00:13:14;;;;;;;15.27;10.63;;;20.60;99.90;;;;;;5032772;28;20206;-77
2022/07/05 00:15:42;;;;;;;14.00;10.20;;;20.70;99.90;;;;;;5032676;28;20290;-74
2022/07/05 00:18:09;;;;;;;14.50;10.70;;;20.60;99.90;;;;;;5033899;28;20580;-74
2022/07/05 00:20:36;;;;;;;17.70;10.30;;;20.60;99.90;;;;;;5033668;28;20671;-74
2022/07/05 00:23:03;;;;;;;16.77;10.93;;;20.60;99.90;;;;;;5032361;28;20196;-74
2022/07/05 00:25:30;;;;;;;20.93;12.10;;;20.50;99.90;;;;;;5032687;28;20294;-74
2022/07/05 00:27:56;;;;;;;17.53;10.97;;;20.50;99.90;;;;;;5032575;28;20275;-74
2022/07/05 00:30:23;;;;;;;14.73;10.10;;;20.50;99.90;;;;;;5032652;28;20226;-74
2022/07/05 00:32:50;;;;;;;13.47;10.30;;;20.50;99.90;;;;;;5032694;28;20231;-74
2022/07/05 00:35:21;;;;;;;14.93;9.80;;;20.40;99.90;;;;;;5032251;28;20199;-74
2022/07/05 00:37:51;;;;;;;12.00;8.87;;;20.40;99.90;;;;;;5032281;28;20249;-73
2022/07/05 00:40:21;;;;;;;10.60;8.10;;;20.40;99.90;;;;;;5032123;28;20625;-75
2022/07/05 00:42:48;;;;;;;11.50;8.60;;;20.30;99.90;;;;;;5032184;28;20226;-73
2022/07/05 00:45:15;;;;;;;12.27;8.33;;;20.30;99.90;;;;;;5032386;28;20298;-74
2022/07/05 00:47:45;;;;;;;13.60;8.77;;;20.30;99.90;;;;;;5032427;28;20211;-75
2022/07/05 00:50:16;;;;;;;11.97;8.73;;;20.30;99.90;;;;;;5033085;28;20553;-76
2022/07/05 00:52:43;;;;;;;11.63;8.50;;;20.30;99.90;;;;;;5033230;28;20237;-75
2022/07/05 00:55:14;;;;;;;12.53;7.90;;;20.20;99.90;;;;;;5029724;28;20294;-75
2022/07/05 00:57:41;;;;;;;14.63;8.33;;;20.20;99.90;;;;;;5031956;28;20206;-75
2022/07/05 01:00:08;;;;;;;10.37;7.70;;;20.20;99.90;;;;;;5032216;28;20552;-74
2022/07/05 01:02:35;;;;;;;12.93;7.93;;;20.20;99.90;;;;;;5033332;28;20592;-74
2022/07/05 01:05:04;;;;;;;14.47;8.50;;;20.20;99.90;;;;;;5032092;28;20210;-74
2022/07/05 01:07:31;;;;;;;11.07;8.20;;;20.20;99.90;;;;;;5045867;28;20261;-74
2022/07/05 01:10:01;;;;;;;12.50;8.60;;;20.20;99.90;;;;;;5051655;28;20246;-75
2022/07/05 01:12:32;;;;;;;11.17;8.90;;;20.20;99.90;;;;;;5051350;28;20244;-74
2022/07/05 01:14:59;;;;;;;11.17;8.17;;;20.20;99.90;;;;;;5051736;28;20268;-74
2022/07/05 01:17:27;;;;;;;10.73;8.00;;;20.20;99.90;;;;;;5053349;28;20222;-76
2022/07/05 01:19:55;;;;;;;12.40;8.27;;;20.20;99.90;;;;;;5053175;28;20175;-74
2022/07/05 01:22:26;;;;;;;16.30;8.87;;;20.20;99.90;;;;;;5051489;28;20706;-74
2022/07/05 01:24:53;;;;;;;12.17;8.90;;;20.20;99.90;;;;;;5051989;28;20207;-75
2022/07/05 01:27:21;;;;;;;8.60;7.70;;;20.20;99.90;;;;;;5051737;28;20198;-75
2022/07/05 01:29:48;;;;;;;20.67;9.00;;;20.20;99.90;;;;;;5052770;28;20211;-75
2022/07/05 01:32:15;;;;;;;10.90;8.37;;;20.10;99.90;;;;;;5052834;28;20297;-74
2022/07/05 01:34:42;;;;;;;10.20;8.20;;;20.00;99.90;;;;;;5051786;28;20195;-74
2022/07/05 01:37:10;;;;;;;13.37;8.20;;;20.00;99.90;;;;;;5051563;28;20198;-74
2022/07/05 01:39:38;;;;;;;10.57;8.37;;;19.90;99.90;;;;;;5052032;28;20656;-74
2022/07/05 01:42:06;;;;;;;14.97;8.60;;;19.90;99.90;;;;;;5051562;28;20282;-74
2022/07/05 01:44:33;;;;;;;10.43;8.00;;;19.90;99.90;;;;;;5051204;28;20213;-74
2022/07/05 01:47:04;;;;;;;12.90;8.23;;;19.90;99.90;;;;;;5051668;28;20194;-74
2022/07/05 01:49:36;;;;;;;9.60;8.13;;;19.80;99.90;;;;;;5051406;28;20261;-74
2022/07/05 01:52:09;;;;;;;12.20;8.60;;;19.80;99.90;;;;;;5051182;28;20191;-73
2022/07/05 01:54:36;;;;;;;11.23;8.30;;;19.70;99.90;;;;;;5052569;28;20187;-73
2022/07/05 01:57:07;;;;;;;9.40;7.73;;;19.70;99.90;;;;;;5051516;28;20213;-72
2022/07/05 01:59:35;;;;;;;13.90;8.67;;;19.60;99.90;;;;;;5051245;28;20209;-73
2022/07/05 02:02:03;;;;;;;10.60;8.13;;;19.60;99.90;;;;;;5051313;28;20205;-73
2022/07/05 02:04:31;;;;;;;19.23;8.50;;;19.60;99.90;;;;;;5051425;28;20247;-73
2022/07/05 02:06:58;;;;;;;10.67;8.40;;;19.60;99.90;;;;;;5051026;28;20231;-73
2022/07/05 02:09:25;;;;;;;9.97;8.53;;;19.50;99.90;;;;;;5051682;28;20203;-73
2022/07/05 02:11:52;;;;;;;12.70;9.07;;;19.50;99.90;;;;;;5050632;28;20321;-74
2022/07/05 02:14:19;;;;;;;10.40;8.90;;;19.30;99.90;;;;;;5051167;28;20191;-74
2022/07/05 02:16:46;;;;;;;14.93;8.80;;;19.30;99.90;;;;;;5052417;28;20278;-75
2022/07/05 02:19:13;;;;;;;11.40;8.87;;;19.30;99.90;;;;;;5051014;28;20191;-78
2022/07/05 02:21:40;;;;;;;9.87;8.53;;;19.30;99.90;;;;;;5051362;28;20630;-80
2022/07/05 02:24:07;;;;;;;10.67;8.70;;;19.20;99.90;;;;;;5053446;28;20202;-74
2022/07/05 02:26:35;;;;;;;9.97;8.50;;;19.20;99.90;;;;;;5055816;28;20609;-74
2022/07/05 02:29:03;;;;;;;11.27;8.97;;;19.20;99.90;;;;;;5054934;28;20191;-73
2022/07/05 02:31:30;;;;;;;11.07;9.20;;;19.20;99.90;;;;;;5054800;28;20253;-73
2022/07/05 02:33:58;;;;;;;13.43;9.30;;;19.10;99.90;;;;;;5054435;28;20198;-72
2022/07/05 02:36:25;;;;;;;11.40;9.40;;;19.00;99.90;;;;;;5054778;28;20191;-73
2022/07/05 02:38:52;;;;;;;11.87;9.10;;;18.90;99.90;;;;;;5054461;28;20557;-73
2022/07/05 02:41:19;;;;;;;11.63;9.13;;;18.80;99.90;;;;;;5054088;28;20207;-72
2022/07/05 02:43:46;;;;;;;12.37;8.50;;;18.80;99.90;;;;;;5054087;28;20201;-73
2022/07/05 02:46:13;;;;;;;12.30;8.53;;;18.80;99.90;;;;;;5051961;28;20672;-73
2022/07/05 02:48:40;;;;;;;10.20;8.80;;;18.90;99.90;;;;;;5035561;28;20218;-74
2022/07/05 02:51:16;;;;;;;11.63;9.07;;;18.80;99.90;;;;;;5037967;28;20324;-73
2022/07/05 02:53:44;;;;;;;11.27;8.57;;;18.70;99.90;;;;;;5033367;28;20226;-73
2022/07/05 02:56:10;;;;;;;12.30;8.97;;;18.70;99.90;;;;;;5017433;28;20203;-73
2022/07/05 02:58:38;;;;;;;10.67;8.80;;;18.70;99.90;;;;;;5017596;28;20645;-73
2022/07/05 03:01:07;;;;;;;10.53;8.67;;;18.70;99.90;;;;;;5017973;28;20204;-72
2022/07/05 03:03:35;;;;;;;10.13;8.30;;;18.70;99.90;;;;;;5017439;28;20228;-73
2022/07/05 03:06:02;;;;;;;9.97;8.40;;;18.80;99.90;;;;;;5017707;28;20290;-73
2022/07/05 03:08:29;;;;;;;13.63;8.77;;;18.90;99.90;;;;;;5017863;28;20636;-73
2022/07/05 03:10:56;;;;;;;11.80;8.17;;;18.80;99.90;;;;;;5017159;28;20227;-73
2022/07/05 03:13:23;;;;;;;9.70;8.27;;;18.80;99.90;;;;;;5017493;28;20188;-73
2022/07/05 03:15:50;;;;;;;10.70;8.00;;;18.80;99.90;;;;;;5017447;28;20198;-72
2022/07/05 03:18:17;;;;;;;10.10;8.23;;;18.90;99.90;;;;;;5018049;28;20245;-73
2022/07/05 03:20:47;;;;;;;9.67;7.97;;;18.90;99.90;;;;;;5017499;28;20231;-74
2022/07/05 03:23:17;;;;;;;9.60;8.60;;;18.90;99.90;;;;;;5017102;28;20195;-78
2022/07/05 03:25:45;;;;;;;9.20;7.57;;;18.90;99.90;;;;;;5017082;28;20207;-74
2022/07/05 03:28:12;;;;;;;11.07;8.00;;;19.00;99.90;;;;;;5035079;28;20667;-73
2022/07/05 03:30:42;;;;;;;9.90;8.10;;;19.00;99.90;;;;;;5017327;28;20225;-73
2022/07/05 03:33:09;;;;;;;9.27;7.87;;;19.00;99.90;;;;;;5017048;28;20720;-74
2022/07/05 03:35:35;;;;;;;8.93;7.93;;;19.00;99.90;;;;;;5034513;28;20195;-74
2022/07/05 03:38:03;;;;;;;9.80;8.03;;;19.10;99.90;;;;;;5017126;28;20200;-74
2022/07/05 03:40:29;;;;;;;9.57;7.83;;;19.10;99.90;;;;;;5016827;28;20226;-73
2022/07/05 03:42:56;;;;;;;9.47;8.10;;;19.00;99.90;;;;;;5016842;28;20200;-73
2022/07/05 03:45:23;;;;;;;10.23;7.87;;;18.90;99.90;;;;;;5017172;28;20279;-73
2022/07/05 03:47:51;;;;;;;8.33;7.53;;;18.90;99.90;;;;;;5016748;28;20239;-73
2022/07/05 03:50:18;;;;;;;9.63;7.63;;;19.00;99.90;;;;;;5016610;28;20227;-73
2022/07/05 03:52:45;;;;;;;9.13;7.73;;;19.00;99.90;;;;;;5034355;28;20531;-72
2022/07/05 03:55:12;;;;;;;10.57;7.77;;;19.00;99.90;;;;;;5017014;28;20245;-73
2022/07/05 03:57:39;;;;;;;9.03;7.93;;;18.90;99.90;;;;;;5016502;28;20660;-74
2022/07/05 04:00:06;;;;;;;10.73;7.70;;;18.90;99.90;;;;;;5034303;28;20295;-74
2022/07/05 04:02:33;;;;;;;10.03;7.73;;;18.80;99.90;;;;;;5016634;28;20227;-73
2022/07/05 04:05:00;;;;;;;9.03;7.63;;;18.80;99.90;;;;;;5016435;28;20196;-73
2022/07/05 04:07:27;;;;;;;9.83;7.50;;;18.70;99.90;;;;;;5016028;28;20263;-74
2022/07/05 04:09:54;;;;;;;10.13;8.60;;;18.70;99.90;;;;;;5016836;28;20257;-74
2022/07/05 04:12:21;;;;;;;10.47;8.07;;;18.70;99.90;;;;;;5033680;28;20237;-74
2022/07/05 04:14:50;;;;;;;10.67;7.53;;;18.70;99.90;;;;;;5016858;28;20192;-74
2022/07/05 04:17:21;;;;;;;9.77;8.37;;;18.80;99.90;;;;;;5033863;28;20207;-73
2022/07/05 04:19:50;;;;;;;9.63;7.60;;;18.70;99.90;;;;;;5034101;28;20172;-74
2022/07/05 04:22:17;;;;;;;9.10;7.73;;;18.80;99.90;;;;;;5015882;28;20202;-74
2022/07/05 04:27:34;;;;;;;8.77;7.47;;;18.90;99.90;;;;;;4937421;29;20206;-74
2022/07/05 04:30:01;;;;;;;8.97;7.60;;;19.00;99.90;;;;;;4937875;29;20210;-74
2022/07/05 04:32:28;;;;;;;9.50;7.50;;;19.10;99.90;;;;;;4953211;29;20320;-73
2022/07/05 04:34:55;;;;;;;9.43;7.80;;;19.10;99.90;;;;;;4953515;29;20648;-73
2022/07/05 04:37:22;;;;;;;10.00;7.87;;;19.10;99.90;;;;;;4953375;29;20305;-73
2022/07/05 04:39:53;;;;;;;9.67;8.20;;;19.10;99.90;;;;;;4953652;29;20536;-73
2022/07/05 04:42:20;;;;;;;9.70;8.13;;;19.10;99.90;;;;;;4937167;29;20558;-74
2022/07/05 04:44:47;;;;;;;9.67;7.80;;;19.10;99.90;;;;;;4937400;29;20614;-73
2022/07/05 04:47:14;;;;;;;9.73;7.90;;;19.10;99.90;;;;;;4952824;28;20293;-74
2022/07/05 04:49:40;;;;;;;10.87;7.77;;;19.10;99.90;;;;;;4952905;28;20222;-73
2022/07/05 04:52:11;;;;;;;9.70;7.60;;;19.10;99.90;;;;;;4953048;29;20236;-74
2022/07/05 04:54:38;;;;;;;10.27;8.00;;;19.20;99.90;;;;;;4953071;29;20288;-73
2022/07/05 04:57:05;;;;;;;11.03;7.93;;;19.30;99.90;;;;;;4936963;29;20198;-73
2022/07/05 04:59:32;;;;;;;11.23;7.90;;;19.30;99.90;;;;;;4937630;29;20646;-73
2022/07/05 05:02:03;;;;;;;8.43;7.53;;;19.40;99.90;;;;;;4952890;29;20300;-73
2022/07/05 05:04:31;;;;;;;9.30;7.70;;;19.40;99.90;;;;;;4967296;28;20195;-73
2022/07/05 05:06:58;;;;;;;10.97;8.03;;;19.30;99.90;;;;;;5012008;28;20755;-73
2022/07/05 05:09:26;;;;;;;11.63;7.10;;;19.20;99.90;;;;;;5013414;28;20199;-73
2022/07/05 05:11:54;;;;;;;9.43;7.30;;;19.20;99.90;;;;;;5012162;28;20561;-74
2022/07/05 05:14:21;;;;;;;12.43;7.60;;;19.30;99.90;;;;;;5013448;28;20200;-73
2022/07/05 05:16:47;;;;;;;9.27;7.13;;;19.10;99.90;;;;;;5012041;28;20208;-73
2022/07/05 05:19:15;;;;;;;9.00;7.30;;;19.20;99.90;;;;;;5012313;28;20196;-74
2022/07/05 05:21:41;;;;;;;10.63;7.30;;;19.30;99.90;;;;;;5013275;28;20283;-73
2022/07/05 05:24:08;;;;;;;10.33;7.20;;;19.40;99.90;;;;;;5013364;28;20544;-73
2022/07/05 05:26:35;;;;;;;9.73;7.20;;;19.40;99.90;;;;;;5013229;28;20192;-73
2022/07/05 05:29:02;;;;;;;12.17;7.40;;;19.50;99.90;;;;;;5012015;28;20196;-74
2022/07/05 05:31:29;;;;;;;11.97;7.20;;;19.50;99.90;;;;;;5011547;28;20318;-73
2022/07/05 05:33:56;;;;;;;10.67;7.17;;;19.50;99.90;;;;;;5012097;28;20196;-73
2022/07/05 05:36:23;;;;;;;8.37;7.47;;;19.50;99.90;;;;;;5012013;28;20207;-73
2022/07/05 05:38:50;;;;;;;9.80;7.50;;;19.60;99.90;;;;;;5012188;28;20199;-73
2022/07/05 05:41:17;;;;;;;7.53;6.60;;;19.70;99.90;;;;;;5012988;28;20274;-73
2022/07/05 05:43:44;;;;;;;10.07;6.97;;;19.80;99.90;;;;;;5011999;28;20220;-73
2022/07/05 05:46:10;;;;;;;8.47;6.43;;;19.90;99.90;;;;;;5012910;28;20188;-72
2022/07/05 05:48:37;;;;;;;8.40;6.73;;;19.90;99.90;;;;;;5012003;28;20216;-74
2022/07/05 05:51:05;;;;;;;8.23;6.63;;;19.90;99.90;;;;;;5011858;28;20220;-72
2022/07/05 05:53:32;;;;;;;9.13;6.53;;;20.00;99.90;;;;;;5011567;28;20201;-72
2022/07/05 05:55:59;;;;;;;9.60;7.00;;;20.00;99.90;;;;;;5011751;28;20203;-72
2022/07/05 05:58:26;;;;;;;8.73;7.43;;;20.00;99.90;;;;;;5014160;28;20188;-72
2022/07/05 06:00:53;;;;;;;10.07;6.77;;;20.00;99.90;;;;;;5015468;28;20231;-72
2022/07/05 06:03:22;;;;;;;7.50;6.70;;;20.10;99.90;;;;;;5015283;28;20210;-73
2022/07/05 06:05:49;;;;;;;9.57;7.03;;;20.10;99.90;;;;;;5015525;28;20210;-73
2022/07/05 06:08:17;;;;;;;9.90;7.40;;;20.20;99.90;;;;;;5015215;28;20327;-73
2022/07/05 06:10:45;;;;;;;7.40;6.53;;;20.20;99.90;;;;;;5016478;28;20303;-72
2022/07/05 06:13:20;;;;;;;10.17;6.20;;;20.30;99.90;;;;;;5015222;28;20200;-72
2022/07/05 06:15:47;;;;;;;7.90;6.90;;;20.40;99.90;;;;;;5015249;28;20196;-73
2022/07/05 06:18:14;;;;;;;7.70;6.90;;;20.40;99.90;;;;;;5015612;28;20227;-73
2022/07/05 06:20:41;;;;;;;9.60;6.57;;;20.30;99.90;;;;;;5015130;28;20741;-73
2022/07/05 06:23:08;;;;;;;9.57;6.60;;;20.40;99.90;;;;;;5014964;28;20228;-75
2022/07/05 06:25:36;;;;;;;7.00;6.30;;;20.40;99.90;;;;;;5015030;28;20251;-76
2022/07/05 06:28:05;;;;;;;7.30;6.27;;;20.60;99.90;;;;;;5014866;28;20287;-72
2022/07/05 06:30:34;;;;;;;10.60;6.70;;;20.80;99.90;;;;;;5014678;28;20672;-74
2022/07/05 06:33:02;;;;;;;7.70;6.50;;;20.90;99.90;;;;;;5016155;28;20216;-73
2022/07/05 06:35:30;;;;;;;7.57;6.20;;;21.10;99.90;;;;;;5015059;28;20211;-72
2022/07/05 06:38:01;;;;;;;8.33;6.20;;;21.20;99.90;;;;;;5014869;28;20654;-74
2022/07/05 06:40:28;;;;;;;11.03;6.30;;;21.30;99.90;;;;;;5014893;28;20226;-75
2022/07/05 06:42:57;;;;;;;7.83;6.00;;;21.30;99.90;;;;;;5015751;28;20272;-72
2022/07/05 06:45:25;;;;;;;13.90;6.60;;;21.50;99.90;;;;;;5014770;28;20219;-74
2022/07/05 06:47:59;;;;;;;7.30;6.40;;;21.50;99.90;;;;;;5014629;28;20338;-72
2022/07/05 06:50:30;;;;;;;7.93;6.07;;;21.60;99.90;;;;;;5014802;28;20662;-73
2022/07/05 06:52:58;;;;;;;8.90;5.73;;;21.70;99.90;;;;;;5014342;28;20590;-73
2022/07/05 06:55:25;;;;;;;7.13;5.57;;;22.00;99.90;;;;;;5014570;28;20206;-73
2022/07/05 06:58:00;;;;;;;6.23;5.63;;;22.00;99.90;;;;;;5014200;28;20328;-71
2022/07/05 07:00:43;;;;;;;8.73;5.90;;;22.20;99.90;;;;;;5014572;28;20184;-72
2022/07/05 07:03:31;;;;;;;9.73;6.50;;;22.30;99.90;;;;;;5013993;28;20188;-72
2022/07/05 07:06:18;;;;;;;7.70;6.33;;;22.30;99.90;;;;;;5016716;28;20238;-73
2022/07/05 07:11:30;;;;;;;9.53;5.87;;;22.50;99.90;;;;;;5017147;28;20714;-72
2022/07/05 07:13:57;;;;;;;7.13;6.20;;;22.60;99.90;;;;;;5017156;28;20236;-73
2022/07/05 07:16:24;;;;;;;7.30;6.60;;;22.80;99.90;;;;;;5017211;28;20295;-73
2022/07/05 07:18:51;;;;;;;7.57;6.30;;;22.70;99.90;;;;;;5017048;28;20210;-74
2022/07/05 07:21:39;;;;;;;8.43;6.07;;;22.80;99.90;;;;;;5017022;28;20225;-72
2022/07/05 07:24:07;;;;;;;10.43;6.30;;;22.80;99.90;;;;;;5017213;28;20289;-72
2022/07/05 07:27:02;;;;;;;9.50;6.78;;;23.00;99.90;;;;;;5016976;28;20290;-75
2022/07/05 07:29:22;;;;;;;7.47;6.70;;;23.00;99.90;;;;;;5017067;28;20192;-72
2022/07/05 07:31:49;;;;;;;8.50;6.53;;;23.00;99.90;;;;;;5016955;28;20312;-71
2022/07/05 07:34:16;;;;;;;11.77;6.83;;;23.10;99.90;;;;;;5016965;28;20196;-73
2022/07/05 07:36:43;;;;;;;10.60;6.88;;;23.20;99.90;;;;;;5016848;28;20199;-72
2022/07/05 07:39:10;;;;;;;11.37;6.53;;;23.20;99.90;;;;;;5016806;28;20196;-74
2022/07/05 07:41:36;;;;;;;13.77;7.40;;;23.30;99.90;;;;;;5016739;28;20299;-70
2022/07/05 07:44:03;;;;;;;13.70;6.90;;;23.40;99.90;;;;;;5016559;28;20195;-74
2022/07/05 07:46:31;;;;;;;8.07;6.20;;;23.50;99.90;;;;;;5016730;28;20218;-74
2022/07/05 07:48:58;;;;;;;12.43;6.20;;;23.70;99.90;;;;;;5016233;28;20215;-74
2022/07/05 07:51:25;;;;;;;13.63;6.53;;;23.70;99.90;;;;;;5016788;28;20220;-74
2022/07/05 07:53:52;;;;;;;7.40;6.47;;;23.80;99.90;;;;;;5034312;28;20192;-70
2022/07/05 07:56:32;;;;;;;8.07;6.55;;;23.90;99.90;;;;;;5016291;28;20763;-73
2022/07/05 07:58:59;;;;;;;8.57;6.68;;;23.90;99.90;;;;;;5016649;28;20196;-73
2022/07/05 08:01:26;;;;;;;8.60;6.57;;;24.00;99.90;;;;;;5034055;28;20645;-74
2022/07/05 08:03:54;;;;;;;7.65;6.00;;;24.20;99.90;;;;;;5016315;28;20617;-71
2022/07/05 08:06:21;;;;;;;8.57;6.40;;;24.50;99.90;;;;;;5016326;28;20239;-73
2022/07/05 08:08:48;;;;;;;7.82;6.20;;;24.50;99.90;;;;;;5016300;28;20283;-72
2022/07/05 08:11:15;;;;;;;6.85;6.15;;;24.60;99.90;;;;;;5016223;28;20226;-74
2022/07/05 08:13:42;;;;;;;8.70;6.45;;;24.80;99.90;;;;;;5016321;28;20664;-73
2022/07/05 08:16:11;;;;;;;16.00;7.20;;;24.90;99.90;;;;;;5016637;28;20587;-71
2022/07/05 08:21:34;;;;;;;7.75;6.28;;;25.30;99.90;;;;;;5032955;28;20575;-72
2022/07/05 08:24:08;;;;;;;7.70;6.30;;;25.50;99.90;;;;;;5034114;28;20199;-73
2022/07/05 08:26:35;;;;;;;10.90;6.05;;;25.60;99.90;;;;;;5016204;28;20300;-72
2022/07/05 08:29:05;;;;;;;14.45;6.50;;;25.80;99.90;;;;;;5015889;28;20286;-71
2022/07/05 08:31:47;;;;;;;7.20;5.85;;;26.60;99.90;;;;;;5016186;28;20207;-71
2022/07/05 08:34:15;;;;;;;8.20;5.78;;;27.20;99.90;;;;;;5015849;28;20561;-72
2022/07/05 08:36:42;;;;;;;7.70;5.70;;;27.90;99.90;;;;;;5016068;28;20223;-73
2022/07/05 08:39:09;;;;;;;7.30;5.88;;;28.30;99.90;;;;;;5033572;28;20195;-71
2022/07/05 08:41:40;;;;;;;9.60;5.10;;;28.60;99.90;;;;;;5033724;28;20210;-71
2022/07/05 08:44:08;;;;;;;7.05;5.40;;;28.90;99.90;;;;;;5015629;28;20734;-71
2022/07/05 08:46:38;;;;;;;6.15;5.20;;;29.00;99.90;;;;;;5015797;28;20286;-73
2022/07/05 08:49:06;;;;;;;7.68;4.78;;;29.30;99.90;;;;;;5033049;28;20218;-73
2022/07/05 08:51:40;;;;;;;5.85;4.80;;;29.10;99.90;;;;;;5033512;28;20728;-75
2022/07/05 08:54:12;;;;;;;6.75;5.15;;;29.30;99.90;;;;;;5015519;28;20203;-72
2022/07/05 08:56:46;;;;;;;7.25;5.22;;;29.40;99.90;;;;;;5015845;28;20242;-73
2022/07/05 08:59:33;;;;;;;8.85;4.85;;;29.60;99.90;;;;;;5015152;28;20200;-75
2022/07/05 09:02:01;;;;;;;6.28;4.80;;;29.90;99.90;;;;;;5015356;28;20665;-73
2022/07/05 09:04:33;;;;;;;7.13;5.07;;;30.10;99.90;;;;;;5015552;28;20291;-77
2022/07/05 09:07:04;;;;;;;5.10;4.60;;;30.00;99.90;;;;;;5015161;28;20223;-73
2022/07/05 09:09:33;;;;;;;9.98;5.15;;;29.60;99.90;;;;;;5015242;28;20531;-72
2022/07/05 09:12:00;;;;;;;5.28;4.60;;;30.00;99.90;;;;;;5015057;28;20203;-71
2022/07/05 09:14:46;;;;;;;16.42;5.55;;;30.50;99.90;;;;;;5015759;28;20269;-70
2022/07/05 09:17:14;;;;;;;8.63;4.43;;;31.00;99.90;;;;;;5015494;28;20203;-71
2022/07/05 09:19:41;;;;;;;7.63;5.00;;;31.30;99.90;;;;;;5014968;28;20215;-71
2022/07/05 09:22:08;;;;;;;8.43;4.90;;;31.20;99.90;;;;;;5015194;28;20513;-73
2022/07/05 09:24:45;;;;;;;8.13;4.78;;;31.00;99.90;;;;;;5015500;28;20194;-69
2022/07/05 09:27:13;;;;;;;5.32;4.82;;;30.90;99.90;;;;;;5032724;28;20640;-69
2022/07/05 09:29:54;;;;;;;9.35;5.05;;;30.50;99.90;;;;;;5015136;28;20659;-71
2022/07/05 09:32:30;;;;;;;5.53;4.60;;;30.30;99.90;;;;;;5016287;28;20744;-73
2022/07/05 09:35:15;;;;;;;7.72;5.20;;;30.20;99.90;;;;;;5019192;28;20637;-83
2022/07/05 09:37:44;;;;;;;7.88;5.38;;;29.10;99.90;;;;;;5019313;28;20230;-73
2022/07/05 09:40:11;;;;;;;10.45;5.05;;;28.70;99.90;;;;;;5019055;28;20195;-73
2022/07/05 09:42:46;;;;;;;7.75;5.72;;;29.00;99.90;;;;;;5036536;28;20187;-73
2022/07/05 09:45:24;;;;;;;9.63;5.38;;;29.30;99.90;;;;;;5019274;28;20205;-75
2022/07/05 09:47:55;;;;;;;8.68;5.40;;;29.50;99.90;;;;;;5018740;28;20674;-75
2022/07/05 09:50:45;;;;;;;6.53;4.80;;;29.70;99.90;;;;;;5019244;28;20259;-73
2022/07/05 09:53:48;;;;;;;7.35;4.80;;;29.70;99.90;;;;;;5018780;28;20231;-74
2022/07/05 09:56:15;;;;;;;5.80;4.78;;;30.10;99.90;;;;;;5018873;28;20286;-74
2022/07/05 09:58:43;;;;;;;8.05;5.00;;;30.20;99.90;;;;;;5018834;28;20195;-75
2022/07/05 10:01:31;;;;;;;5.88;4.50;;;30.20;99.90;;;;;;5018748;28;20204;-74
2022/07/05 10:04:02;;;;;;;12.82;5.57;;;30.00;99.90;;;;;;5018563;28;20206;-73
2022/07/05 10:06:32;;;;;;;7.28;5.10;;;29.60;99.90;;;;;;5018588;28;20223;-71
2022/07/05 10:09:00;;;;;;;8.60;4.72;;;29.50;99.90;;;;;;5018499;28;20203;-72
2022/07/05 10:11:27;;;;;;;6.95;4.70;;;29.60;99.90;;;;;;5018712;28;20532;-74
2022/07/05 10:13:57;;;;;;;6.88;5.40;;;29.60;99.90;;;;;;5036135;28;20286;-72
2022/07/05 10:16:25;;;;;;;6.40;5.15;;;29.50;99.90;;;;;;5018592;28;20279;-73
2022/07/05 10:18:56;;;;;;;9.00;5.38;;;29.20;99.90;;;;;;5018347;28;20191;-75
2022/07/05 10:21:24;;;;;;;8.43;4.95;;;29.10;99.90;;;;;;5018451;28;20206;-71
2022/07/05 10:23:55;;;;;;;7.30;4.72;;;28.70;99.90;;;;;;5018269;28;20199;-73
2022/07/05 10:26:24;;;;;;;7.13;4.93;;;28.70;99.90;;;;;;5018526;28;20648;-72
2022/07/05 10:28:53;;;;;;;12.20;4.95;;;28.40;99.90;;;;;;5019752;28;20571;-72
2022/07/05 10:31:29;;;;;;;8.82;4.82;;;28.20;99.90;;;;;;5018234;28;20255;-72
2022/07/05 10:34:07;;;;;;;6.53;4.70;;;28.30;99.90;;;;;;5001886;28;20314;-73
2022/07/05 10:36:54;;;;;;;6.75;4.80;;;28.40;99.90;;;;;;5018210;28;20231;-74
2022/07/05 10:39:23;;;;;;;7.90;5.13;;;28.30;99.90;;;;;;5018523;28;20298;-74
2022/07/05 10:41:51;;;;;;;7.78;5.00;;;28.40;99.90;;;;;;5018156;28;20195;-73
2022/07/05 10:44:32;;;;;;;8.05;4.90;;;28.40;99.90;;;;;;5017932;28;20294;-76
2022/07/05 10:47:11;;;;;;;9.00;5.93;;;28.50;99.90;;;;;;5018257;28;20209;-73
2022/07/05 10:49:39;;;;;;;9.60;5.80;;;28.50;99.90;;;;;;5017707;28;20228;-75
2022/07/05 10:52:25;;;;;;;11.60;5.20;;;28.50;99.90;;;;;;5035541;28;20231;-76
2022/07/05 10:55:17;;;;;;;7.30;4.90;;;28.50;99.90;;;;;;5017683;28;20242;-73
2022/07/05 10:58:04;;;;;;;11.95;5.32;;;28.40;99.90;;;;;;5017662;28;20192;-73
2022/07/05 11:00:31;;;;;;;6.85;4.80;;;28.60;99.90;;;;;;5017627;28;20206;-73
2022/07/05 11:03:36;;;;;;;8.52;4.82;;;28.60;99.90;;;;;;5017760;28;20214;-74
2022/07/05 11:06:23;;;;;;;8.38;5.18;;;28.50;99.90;;;;;;5016421;28;20187;-73
2022/07/05 11:09:08;;;;;;;7.95;5.07;;;28.00;99.90;;;;;;5014448;28;20207;-75
2022/07/05 11:11:36;;;;;;;8.02;5.28;;;27.40;99.90;;;;;;5014433;28;20231;-74
2022/07/05 11:14:20;;;;;;;9.63;4.88;;;27.60;99.90;;;;;;5014136;28;20219;-74
2022/07/05 11:17:04;;;;;;;6.10;4.82;;;27.90;99.90;;;;;;5014257;28;20192;-75
2022/07/05 11:20:02;;;;;;;7.03;4.82;;;28.20;99.90;;;;;;5014100;28;20271;-73
2022/07/05 11:22:30;;;;;;;8.75;5.25;;;28.20;99.90;;;;;;5013832;28;20631;-75
2022/07/05 11:24:58;;;;;;;23.00;6.55;;;28.20;99.90;;;;;;5015439;28;20189;-70
2022/07/05 11:27:27;;;;;;;6.10;4.70;;;28.30;99.90;;;;;;5015293;28;20226;-73
2022/07/05 11:29:56;;;;;;;8.50;4.95;;;28.50;99.90;;;;;;5013783;28;20610;-76
2022/07/05 11:32:36;;;;;;;5.30;4.80;;;28.50;99.90;;;;;;5013620;28;20238;-75
2022/07/05 11:35:28;;;;;;;6.30;4.40;;;28.60;99.90;;;;;;5015129;28;20199;-71
2022/07/05 11:38:02;;;;;;;7.53;4.72;;;28.70;99.90;;;;;;5015300;28;20193;-70
2022/07/05 11:40:49;;;;;;;6.55;4.50;;;28.90;99.90;;;;;;5013590;28;20192;-73
2022/07/05 11:43:29;;;;;;;7.35;4.40;;;29.10;99.90;;;;;;5013538;28;20228;-89
2022/07/05 11:45:59;;;;;;;5.20;4.40;;;29.10;99.90;;;;;;5013869;28;20196;-78
2022/07/05 11:48:27;;;;;;;4.78;4.22;;;29.10;99.90;;;;;;5013417;28;20219;-80
2022/07/05 11:50:54;;;;;;;5.20;4.13;;;28.90;99.90;;;;;;5014973;28;20670;-75
2022/07/05 11:53:30;;;;;;;5.65;4.10;;;28.90;99.90;;;;;;5013174;28;20224;-78
2022/07/05 11:56:17;;;;;;;10.02;4.53;;;29.00;99.90;;;;;;5013433;28;20258;-79
2022/07/05 11:58:44;;;;;;;7.47;4.47;;;28.80;99.90;;;;;;5014371;28;20234;-79
2022/07/05 12:01:11;;;;;;;6.70;4.43;;;28.70;99.90;;;;;;5013270;28;20262;-79
2022/07/05 12:03:41;;;;;;;6.57;4.32;;;28.20;99.90;;;;;;5013274;28;20220;-75
2022/07/05 12:06:15;;;;;;;7.28;4.65;;;28.10;99.90;;;;;;5013071;28;20231;-78
2022/07/05 12:08:42;;;;;;;6.43;4.35;;;27.90;99.90;;;;;;5012814;28;20206;-75
2022/07/05 12:13:58;;;;;;;6.10;4.32;;;27.90;99.90;;;;;;5012637;28;20634;-76
2022/07/05 12:16:25;;;;;;;5.18;4.38;;;27.60;99.90;;;;;;5012961;28;20602;-74
2022/07/05 12:18:58;;;;;;;9.15;4.15;;;27.50;99.90;;;;;;5012721;28;20201;-77
2022/07/05 12:21:25;;;;;;;5.97;3.97;;;27.40;99.90;;;;;;5013923;28;20638;-76
2022/07/05 12:23:52;;;;;;;7.18;4.22;;;27.30;99.90;;;;;;5012761;28;20207;-76
2022/07/05 12:26:21;;;;;;;9.00;4.70;;;27.10;99.90;;;;;;5012747;28;20311;-77
2022/07/05 12:28:49;;;;;;;5.47;4.85;;;27.30;99.90;;;;;;5012572;28;20223;-82
2022/07/05 12:31:18;;;;;;;5.38;4.55;;;27.30;99.90;;;;;;5012626;28;20299;-79
2022/07/05 12:33:46;;;;;;;8.20;5.88;;;27.30;99.90;;;;;;5014378;28;20216;-80
2022/07/05 12:36:15;;;;;;;6.47;5.10;;;27.40;99.90;;;;;;5014044;28;20242;-81
2022/07/05 12:38:42;;;;;;;6.65;5.10;;;27.20;99.90;;;;;;5012144;28;20210;-82
2022/07/05 12:41:09;;;;;;;7.20;4.60;;;27.20;99.90;;;;;;5012497;28;20192;-77
2022/07/05 12:43:53;;;;;;;6.07;4.28;;;27.10;99.90;;;;;;5012337;28;20220;-81
2022/07/05 12:46:34;;;;;;;6.85;4.18;;;27.10;99.90;;;;;;5012871;28;20195;-86
2022/07/05 12:49:10;;;;;;;7.50;4.22;;;27.00;99.90;;;;;;5013006;28;20318;-83
2022/07/05 12:51:42;;;;;;;8.52;4.22;;;26.90;99.90;;;;;;5013494;28;20188;-80
2022/07/05 13:00:02;;;;;;;6.18;4.30;;;26.10;99.90;;;;;;5012387;28;20291;-82
2022/07/05 13:02:38;;;;;;;12.50;4.80;;;26.20;99.90;;;;;;5012257;28;20259;-76
2022/07/05 13:05:08;;;;;;;5.07;4.28;;;26.10;99.90;;;;;;5012331;28;20207;-75
2022/07/05 13:07:42;;;;;;;11.70;4.60;;;25.90;99.90;;;;;;5011679;28;20290;-75
2022/07/05 13:10:21;;;;;;;4.90;4.13;;;25.90;99.90;;;;;;5012312;28;20271;-75
2022/07/05 13:12:49;;;;;;;8.63;4.38;;;25.80;99.90;;;;;;5013382;28;20684;-75
2022/07/05 13:15:16;;;;;;;5.10;4.20;;;25.60;99.90;;;;;;5013362;28;20672;-75